Atlanta, Kansas
Current Conditions -  °F | °C
As of 2:55 AM on Friday 31 Oct 2014 (Local Time) from KEQA Reporting Station
Scattered Clouds Scattered Clouds  
Wind Chill: 38°   Ceiling: Unl
Heat Index: 45°   Visibility: 10mi
Dew Point: 37°   Wind: 15mph
Humidity: 76%   Direction: 350°N
Pressure: 30.32"   Gusts: NA
Location:  37.44°N, 96.76°W
Report Text: KEQA 310755Z AUTO 35013KT 10SM SCT018 07/03 A3032 RMK AO2
Loading
Personal Weather Stations






























Interactive Weather Map
Tropical Storm Tracking
New forecast layout! Learn more

10-Day Weather Forecast

Advertisements
Track Severe Weather on mobile